Cahone, CO (81320)

5:05 AM MST on February 09, 2016 (GMT -0700)
Cahone (2.5 Miles NNE) | | Change Station
CLOSE
Current Station
Personal Weather Station
Location: Cahone, CO
Elevation: 6870 ft
Nearby Weather Stations

Elev 6870 ft 37.69 °N, 108.80 °W | Updated 3 seconds ago

Partly Cloudy
Partly Cloudy
27.0 °F
Feels Like 22 °F
N
4.0
Wind Variable Wind from North
Gusts 7.0 mph

Today
High -- | Low -- °F
--% Chance of Precip.
Yesterday
High -- | Low -- °F
Precip. -- in
Pressure 30.45 in
Visibility 10.0 miles
Clouds Clear
Windchill 22 °F
Dew Point 16 °F
Humidity 62%
Rainfall 0.00 in
Snow Depth Not available.
7:11 AM 5:47 PM
New Moon, 1% visible
METAR KCEZ 091153Z AUTO 06008KT 10SM CLR M08/M11 A3043 RMK AO2 SLP310 T10831106 10022 21083 53000
Pressure 30.45 in
Visibility 10.0 miles
Clouds Clear
Windchill 22 °F
Dew Point 16 °F
Humidity 62%
Rainfall 0.00 in
Snow Depth Not available.
7:11 AM 5:47 PM
New Moon, 1% visible
METAR KCEZ 091153Z AUTO 06008KT 10SM CLR M08/M11 A3043 RMK AO2 SLP310 T10831106 10022 21083 53000

10-Day Weather Forecast

Almanac

Astronomy

Feb. 09, 2016 Rise Set
Actual Time
Civil Twilight
Nautical Twilight
Astronomical Twilight
Moon
Length of Visible Light
Length of Day
Tomorrow will be .
, % of the Moon is Illuminated

Today's Extremes

State Highs State Lows

Community

WunderPhotos

Upload Photos

1,891,565 photos uploaded!

WunderBlog® & News

Nearby

Air Quality

  Air Quality AQ Index Pollutant
Not available.

Snow Depth

Station Depth Elevation

Earthquake Activity

City Distance Mag. Time & Date
Minimum magnitude displayed is 2.5.

Coastal Water Temperatures

Place Temperature

Stations

Nearby Weather Stations

Station Location Temp. Windchill Dew Point Humidity Wind Precip. Elev Updated Type
                   

Watches & Warnings

There are currently no watches in effect.